createdAt,value
2017-08-22T00:00:32.383Z,0.00
2017-08-22T00:01:32.524Z,0.00
2017-08-22T00:02:32.518Z,0.00
2017-08-22T00:03:33.487Z,0.00
2017-08-22T00:04:35.105Z,0.00
2017-08-22T00:05:28.587Z,0.00
2017-08-22T00:06:28.562Z,0.00
2017-08-22T00:07:23.527Z,0.00
2017-08-22T00:08:18.697Z,0.00
2017-08-22T00:09:19.509Z,0.00
2017-08-22T00:10:13.713Z,0.00
2017-08-22T00:11:08.789Z,0.00
2017-08-22T00:12:09.129Z,0.00
2017-08-22T00:13:03.767Z,0.00
2017-08-22T00:14:03.782Z,0.00
2017-08-22T00:15:03.941Z,0.00
2017-08-22T00:16:03.885Z,0.00
2017-08-22T00:16:58.344Z,0.00
2017-08-22T00:17:57.996Z,0.00
2017-08-22T00:18:53.020Z,0.00
2017-08-22T00:19:48.602Z,0.00
2017-08-22T00:20:49.378Z,0.00
2017-08-22T00:21:49.092Z,0.00
2017-08-22T00:22:49.155Z,0.00
2017-08-22T00:23:44.112Z,0.00
2017-08-22T00:24:44.687Z,0.00
2017-08-22T00:25:44.511Z,0.00
2017-08-22T00:26:38.424Z,0.00
2017-08-22T00:27:38.263Z,0.00
2017-08-22T00:28:33.344Z,0.00
2017-08-22T00:29:33.969Z,0.00
2017-08-22T00:30:27.457Z,0.00
2017-08-22T00:31:27.493Z,0.00
2017-08-22T00:32:22.518Z,0.00
2017-08-22T00:33:22.518Z,0.00
2017-08-22T00:34:22.565Z,0.00
2017-08-22T00:35:22.572Z,0.00
2017-08-22T00:36:16.633Z,0.00
2017-08-22T00:37:16.700Z,0.00
2017-08-22T00:38:11.869Z,0.00
2017-08-22T00:39:06.975Z,0.00
2017-08-22T00:40:06.779Z,0.00
2017-08-22T00:41:01.844Z,0.00
2017-08-22T00:41:56.865Z,0.00
2017-08-22T00:42:57.694Z,0.00
2017-08-22T00:43:57.910Z,0.00
2017-08-22T00:44:58.527Z,0.00
2017-08-22T00:45:52.921Z,0.00
2017-08-22T00:46:47.004Z,0.00
2017-08-22T00:47:46.916Z,0.00
2017-08-22T00:48:42.053Z,0.00
2017-08-22T00:49:42.073Z,0.00
2017-08-22T00:50:36.095Z,0.00
2017-08-22T00:51:36.284Z,0.00
2017-08-22T00:52:31.126Z,0.00
2017-08-22T00:53:26.261Z,0.00
2017-08-22T00:54:27.666Z,0.00
2017-08-22T00:55:27.330Z,0.00
2017-08-22T00:56:22.317Z,0.00
2017-08-22T00:57:22.258Z,0.00
2017-08-22T00:58:16.414Z,0.00
2017-08-22T00:59:17.894Z,0.00
2017-08-22T01:00:17.341Z,0.00
2017-08-22T01:01:12.498Z,0.00
2017-08-22T01:02:13.101Z,0.00
2017-08-22T01:03:13.146Z,0.00
2017-08-22T01:04:13.188Z,0.00
2017-08-22T01:05:06.551Z,0.00
2017-08-22T01:06:06.905Z,0.00
2017-08-22T01:07:01.703Z,0.00
2017-08-22T01:08:01.754Z,0.00
2017-08-22T01:08:55.774Z,0.00
2017-08-22T01:09:56.166Z,0.00
2017-08-22T01:10:50.804Z,0.00
2017-08-22T01:11:45.768Z,0.00
2017-08-22T01:12:45.835Z,0.00
2017-08-22T01:13:40.962Z,0.00
2017-08-22T01:14:40.932Z,0.00
2017-08-22T01:15:40.974Z,0.00
2017-08-22T01:16:40.991Z,0.00
2017-08-22T01:17:35.016Z,0.00
2017-08-22T01:18:35.063Z,0.00
2017-08-22T01:19:30.093Z,0.00
2017-08-22T01:20:30.130Z,0.00
2017-08-22T01:21:30.111Z,0.00
2017-08-22T01:22:30.119Z,0.00
2017-08-22T01:23:30.273Z,0.00
2017-08-22T01:24:30.241Z,0.00
2017-08-22T01:25:24.240Z,0.00
2017-08-22T01:26:24.309Z,0.00
2017-08-22T01:27:19.364Z,0.00
2017-08-22T01:28:14.481Z,0.00
2017-08-22T01:29:15.955Z,0.00
2017-08-22T01:30:15.479Z,0.00
2017-08-22T01:31:15.485Z,0.00
2017-08-22T01:32:10.473Z,0.00
2017-08-22T01:33:04.510Z,0.00
2017-08-22T01:34:05.724Z,0.00
2017-08-22T01:35:05.543Z,0.00
2017-08-22T01:36:05.636Z,0.00
2017-08-22T01:37:00.709Z,0.00
2017-08-22T01:37:54.642Z,0.00
2017-08-22T01:38:54.733Z,0.00
2017-08-22T01:39:50.335Z,0.00
2017-08-22T01:40:44.980Z,0.00
2017-08-22T01:41:45.846Z,0.00
2017-08-22T01:42:45.871Z,0.00
2017-08-22T01:43:45.896Z,0.00
2017-08-22T01:44:41.536Z,0.00
2017-08-22T01:45:34.909Z,0.00
2017-08-22T01:46:34.984Z,0.00
2017-08-22T01:47:30.066Z,0.00
2017-08-22T01:48:30.132Z,0.00
2017-08-22T01:49:24.604Z,0.00
2017-08-22T01:50:25.133Z,0.00
2017-08-22T01:51:26.238Z,0.00
2017-08-22T01:52:21.219Z,0.00
2017-08-22T01:53:15.363Z,0.00
2017-08-22T01:54:15.717Z,0.00
2017-08-22T01:55:10.282Z,0.00
2017-08-22T01:56:10.378Z,0.00
2017-08-22T01:57:04.389Z,0.00
2017-08-22T01:58:04.387Z,0.00
2017-08-22T01:58:59.524Z,0.00
2017-08-22T01:59:55.086Z,0.00
2017-08-22T02:00:54.782Z,0.00
2017-08-22T02:01:49.436Z,0.00
2017-08-22T02:02:44.489Z,0.00
2017-08-22T02:03:44.676Z,0.00
2017-08-22T02:04:39.952Z,0.00
2017-08-22T02:05:34.713Z,0.00
2017-08-22T02:06:35.717Z,0.00
2017-08-22T02:07:35.729Z,0.00
2017-08-22T02:08:35.713Z,0.00
2017-08-22T02:09:30.859Z,0.00
2017-08-22T02:10:30.908Z,0.00
2017-08-22T02:11:30.881Z,0.00
2017-08-22T02:12:24.889Z,0.00
2017-08-22T02:13:24.878Z,0.00
2017-08-22T02:14:20.054Z,0.00
2017-08-22T02:15:20.028Z,0.00
2017-08-22T02:16:14.080Z,0.00
2017-08-22T02:17:14.119Z,0.00
2017-08-22T02:18:09.119Z,0.00
2017-08-22T02:19:04.177Z,0.00
2017-08-22T02:20:04.151Z,0.00
2017-08-22T02:20:59.255Z,0.00
2017-08-22T02:21:54.269Z,0.00
2017-08-22T02:22:55.226Z,0.00
2017-08-22T02:23:55.386Z,0.00
2017-08-22T02:24:55.972Z,0.00
2017-08-22T02:25:50.443Z,0.00
2017-08-22T02:26:44.343Z,0.00
2017-08-22T02:27:44.588Z,0.00
2017-08-22T02:28:39.535Z,0.00
2017-08-22T02:29:39.500Z,0.00
2017-08-22T02:30:33.551Z,0.00
2017-08-22T02:31:33.538Z,0.00
2017-08-22T02:32:28.648Z,0.00
2017-08-22T02:33:23.600Z,0.00
2017-08-22T02:34:23.668Z,0.00
2017-08-22T02:35:18.805Z,0.00
2017-08-22T02:36:13.718Z,0.00
2017-08-22T02:37:14.748Z,0.00
2017-08-22T02:38:14.827Z,0.00
2017-08-22T02:39:15.454Z,0.00
2017-08-22T02:40:09.896Z,0.00
2017-08-22T02:41:03.997Z,0.00
2017-08-22T02:42:03.989Z,0.00
2017-08-22T02:42:58.998Z,0.00
2017-08-22T02:43:58.981Z,0.00
2017-08-22T02:44:53.133Z,0.00
2017-08-22T02:45:53.012Z,0.00
2017-08-22T02:46:48.048Z,0.00
2017-08-22T02:47:43.249Z,0.00
2017-08-22T02:48:43.132Z,0.00
2017-08-22T02:49:38.835Z,0.00
2017-08-22T02:50:33.299Z,0.00
2017-08-22T02:51:39.264Z,0.00
2017-08-22T02:52:33.285Z,0.00
2017-08-22T02:53:33.304Z,0.00
2017-08-22T02:54:28.973Z,0.00
2017-08-22T02:55:28.406Z,0.00
2017-08-22T02:56:22.742Z,0.00
2017-08-22T02:57:22.464Z,0.00
2017-08-22T02:58:17.463Z,0.00
2017-08-22T02:59:13.125Z,0.00
2017-08-22T03:00:13.105Z,0.00
2017-08-22T03:01:07.599Z,0.00
2017-08-22T03:02:02.687Z,0.00
2017-08-22T03:03:03.757Z,0.00
2017-08-22T03:04:03.691Z,0.00
2017-08-22T03:04:59.422Z,0.00
2017-08-22T03:05:58.792Z,0.00
2017-08-22T03:06:52.865Z,0.00
2017-08-22T03:07:52.882Z,0.00
2017-08-22T03:08:47.943Z,0.00
2017-08-22T03:09:43.167Z,0.00
2017-08-22T03:10:43.087Z,0.00
2017-08-22T03:11:38.026Z,0.00
2017-08-22T03:12:33.052Z,0.00
2017-08-22T03:13:33.161Z,0.00
2017-08-22T03:14:28.472Z,0.00
2017-08-22T03:15:23.063Z,0.00
2017-08-22T03:16:24.167Z,0.00
2017-08-22T03:17:24.239Z,0.00
2017-08-22T03:18:24.179Z,0.00
2017-08-22T03:19:19.729Z,0.00
2017-08-22T03:20:13.278Z,0.00
2017-08-22T03:21:13.408Z,0.00
2017-08-22T03:22:08.382Z,0.00
2017-08-22T03:23:08.298Z,0.00
2017-08-22T03:24:02.412Z,0.00
2017-08-22T03:25:02.655Z,0.00
2017-08-22T03:25:57.537Z,0.00
2017-08-22T03:26:52.482Z,0.00
2017-08-22T03:27:52.750Z,0.00
2017-08-22T03:28:47.618Z,0.00
2017-08-22T03:29:42.167Z,0.00
2017-08-22T03:30:41.875Z,0.00
2017-08-22T03:31:41.682Z,0.00
2017-08-22T03:32:36.931Z,0.00
2017-08-22T03:33:30.950Z,0.00
2017-08-22T03:34:26.318Z,0.00
2017-08-22T03:35:14.018Z,0.00
2017-08-22T03:36:08.983Z,0.00
2017-08-22T03:36:57.565Z,0.00
2017-08-22T03:37:46.248Z,0.00
2017-08-22T03:38:40.330Z,0.00
2017-08-22T03:39:34.591Z,0.00
2017-08-22T03:40:29.506Z,0.00
2017-08-22T03:41:29.529Z,0.00
2017-08-22T03:42:23.118Z,0.00
2017-08-22T03:43:24.631Z,0.00
2017-08-22T03:44:19.747Z,0.00
2017-08-22T03:45:08.586Z,0.00
2017-08-22T03:46:08.598Z,0.00
2017-08-22T03:47:03.931Z,0.00
2017-08-22T03:47:58.335Z,0.00
2017-08-22T03:48:58.527Z,0.00
2017-08-22T03:49:54.021Z,0.00
2017-08-22T03:50:49.011Z,0.00
2017-08-22T03:51:49.151Z,0.00
2017-08-22T03:52:44.111Z,0.00
2017-08-22T03:53:39.167Z,0.00
2017-08-22T03:54:40.259Z,0.00
2017-08-22T03:55:40.196Z,0.00
2017-08-22T03:56:40.216Z,0.00
2017-08-22T03:57:35.194Z,0.00
2017-08-22T03:58:35.269Z,0.00
2017-08-22T03:59:35.325Z,0.00
2017-08-22T04:00:29.449Z,0.00
2017-08-22T04:01:29.399Z,0.00
2017-08-22T04:02:24.399Z,0.00
2017-08-22T04:03:24.432Z,0.00
2017-08-22T04:04:18.613Z,0.00
2017-08-22T04:05:18.537Z,0.00
2017-08-22T04:06:13.509Z,0.00
2017-08-22T04:07:08.519Z,0.00
2017-08-22T04:08:08.646Z,0.00
2017-08-22T04:09:03.572Z,0.00
2017-08-22T04:09:58.684Z,0.00
2017-08-22T04:10:58.638Z,0.00
2017-08-22T04:11:53.782Z,0.00
2017-08-22T04:12:48.718Z,0.00
2017-08-22T04:13:48.867Z,0.00
2017-08-22T04:14:43.875Z,0.00
2017-08-22T04:15:38.994Z,0.00
2017-08-22T04:16:32.814Z,0.00
2017-08-22T04:17:34.013Z,0.00
2017-08-22T04:18:28.924Z,0.00
2017-08-22T04:19:23.125Z,0.00
2017-08-22T04:20:23.134Z,0.00
2017-08-22T04:21:18.151Z,0.00
2017-08-22T04:22:13.130Z,0.00
2017-08-22T04:23:13.097Z,0.00
2017-08-22T04:24:08.242Z,0.00
2017-08-22T04:25:08.073Z,0.00
2017-08-22T04:26:09.282Z,0.00
2017-08-22T04:27:08.939Z,0.00
2017-08-22T04:28:08.989Z,0.00
2017-08-22T04:29:02.859Z,0.00
2017-08-22T04:30:02.847Z,0.00
2017-08-22T04:30:57.892Z,0.00
2017-08-22T04:31:52.931Z,0.00
2017-08-22T04:32:46.913Z,0.00
2017-08-22T04:33:47.044Z,0.00
2017-08-22T04:34:41.956Z,0.00
2017-08-22T04:35:36.986Z,0.00
2017-08-22T04:36:37.168Z,0.00
2017-08-22T04:37:32.354Z,0.00
2017-08-22T04:38:27.175Z,0.00
2017-08-22T04:39:21.302Z,0.01
2017-08-22T04:40:22.190Z,0.01
2017-08-22T04:41:17.189Z,0.01
2017-08-22T04:42:17.360Z,0.01
2017-08-22T04:43:17.271Z,0.01
2017-08-22T04:44:18.013Z,0.01
2017-08-22T04:45:17.341Z,0.01
2017-08-22T04:46:17.334Z,0.01
2017-08-22T04:47:17.436Z,0.01
2017-08-22T04:48:17.510Z,0.01
2017-08-22T04:49:18.194Z,0.01
2017-08-22T04:50:17.508Z,0.02
2017-08-22T04:51:17.671Z,0.02
2017-08-22T04:52:17.605Z,0.02
2017-08-22T04:53:17.750Z,0.02
2017-08-22T04:54:18.262Z,0.02
2017-08-22T04:55:17.772Z,0.02
2017-08-22T04:56:17.779Z,0.02
2017-08-22T04:57:23.772Z,0.02
2017-08-22T04:58:18.946Z,0.02
2017-08-22T04:59:12.823Z,0.02
2017-08-22T05:00:12.894Z,0.02
2017-08-22T05:01:07.744Z,0.02
2017-08-22T05:02:07.936Z,0.03
2017-08-22T05:03:09.176Z,0.03
2017-08-22T05:04:09.068Z,0.03
2017-08-22T05:05:09.222Z,0.03
2017-08-22T05:06:09.073Z,0.03
2017-08-22T05:07:09.143Z,0.03
2017-08-22T05:08:09.060Z,0.04
2017-08-22T05:09:09.237Z,0.04
2017-08-22T05:10:09.234Z,0.04
2017-08-22T05:11:09.263Z,0.04
2017-08-22T05:12:09.437Z,0.04
2017-08-22T05:13:09.315Z,0.04
2017-08-22T05:14:09.297Z,0.05
2017-08-22T05:15:15.425Z,0.05
2017-08-22T05:16:15.400Z,0.05
2017-08-22T05:17:16.751Z,0.05
2017-08-22T05:18:17.543Z,0.05
2017-08-22T05:19:18.364Z,0.05
2017-08-22T05:20:12.537Z,0.05
2017-08-22T05:21:13.585Z,0.05
2017-08-22T05:22:13.869Z,0.05
2017-08-22T05:23:08.744Z,0.05
2017-08-22T05:24:03.678Z,0.05
2017-08-22T05:25:04.657Z,0.05
2017-08-22T05:26:04.822Z,0.05
2017-08-22T05:26:59.663Z,0.05
2017-08-22T05:27:54.715Z,0.05
2017-08-22T05:28:54.991Z,0.05
2017-08-22T05:29:49.881Z,0.05
2017-08-22T05:30:44.893Z,0.05
2017-08-22T05:31:39.038Z,0.05
2017-08-22T05:32:39.112Z,0.05
2017-08-22T05:33:34.060Z,0.05
2017-08-22T05:34:34.373Z,0.05
2017-08-22T05:35:34.415Z,0.05
2017-08-22T05:36:34.079Z,0.05
2017-08-22T05:37:28.486Z,0.05
2017-08-22T05:38:28.144Z,0.05
2017-08-22T05:39:23.211Z,0.05
2017-08-22T05:40:18.397Z,0.06
2017-08-22T05:41:12.386Z,0.06
2017-08-22T05:42:12.904Z,0.06
2017-08-22T05:43:07.392Z,0.06
2017-08-22T05:44:07.986Z,0.06
2017-08-22T05:45:08.515Z,0.06
2017-08-22T05:46:09.112Z,0.06
2017-08-22T05:47:09.065Z,0.07
2017-08-22T05:48:09.107Z,0.07
2017-08-22T05:49:09.147Z,0.07
2017-08-22T05:50:08.559Z,0.07
2017-08-22T05:51:09.108Z,0.07
2017-08-22T05:52:09.297Z,0.07
2017-08-22T05:53:08.889Z,0.08
2017-08-22T05:54:09.026Z,0.08
2017-08-22T05:55:08.953Z,0.08
2017-08-22T05:56:08.842Z,0.08
2017-08-22T05:57:15.127Z,0.09
2017-08-22T05:58:10.181Z,0.09
2017-08-22T05:59:04.322Z,0.09
2017-08-22T06:00:04.582Z,0.09
2017-08-22T06:00:59.312Z,0.09
2017-08-22T06:01:54.414Z,0.10
2017-08-22T06:02:54.774Z,0.10
2017-08-22T06:03:49.729Z,0.10
2017-08-22T06:04:44.596Z,0.11
2017-08-22T06:05:44.234Z,0.11
2017-08-22T06:06:44.678Z,0.11
2017-08-22T06:07:38.854Z,0.11
2017-08-22T06:08:38.625Z,0.11
2017-08-22T06:09:33.979Z,0.12
2017-08-22T06:10:34.038Z,0.12
2017-08-22T06:11:33.972Z,0.12
2017-08-22T06:12:34.195Z,0.13
2017-08-22T06:13:34.122Z,0.13
2017-08-22T06:14:33.494Z,0.13
2017-08-22T06:15:28.080Z,0.13
2017-08-22T06:16:28.092Z,0.13
2017-08-22T06:17:22.927Z,0.13
2017-08-22T06:18:17.706Z,0.14
2017-08-22T06:19:18.473Z,0.14
2017-08-22T06:20:17.840Z,0.13
2017-08-22T06:21:12.415Z,0.13
2017-08-22T06:22:12.185Z,0.14
2017-08-22T06:23:07.474Z,0.14
2017-08-22T06:24:02.103Z,0.15
2017-08-22T06:24:56.523Z,0.16
2017-08-22T06:25:57.310Z,0.16
2017-08-22T06:26:57.450Z,0.17
2017-08-22T06:27:57.572Z,0.17
2017-08-22T06:28:57.518Z,0.18
2017-08-22T06:29:57.604Z,0.18
2017-08-22T06:30:58.815Z,0.19
2017-08-22T06:31:53.581Z,0.20
2017-08-22T06:32:47.682Z,0.22
2017-08-22T06:33:47.837Z,0.23
2017-08-22T06:34:42.861Z,0.24
2017-08-22T06:35:37.871Z,0.25
2017-08-22T06:36:33.047Z,0.25
2017-08-22T06:37:39.078Z,0.26
2017-08-22T06:38:34.067Z,0.26
2017-08-22T06:39:28.112Z,0.26
2017-08-22T06:40:23.141Z,0.26
2017-08-22T06:41:11.238Z,0.25
2017-08-22T06:42:11.209Z,0.25
2017-08-22T06:43:06.261Z,0.25
2017-08-22T06:44:06.360Z,0.25
2017-08-22T06:45:01.391Z,0.24
2017-08-22T06:45:50.477Z,0.24
2017-08-22T06:46:39.481Z,0.25
2017-08-22T06:47:33.594Z,0.25
2017-08-22T06:48:21.633Z,0.25
2017-08-22T06:49:10.345Z,0.26
2017-08-22T06:50:04.114Z,0.27
2017-08-22T06:50:58.450Z,0.26
2017-08-22T06:51:53.841Z,0.26
2017-08-22T06:52:53.682Z,0.27
2017-08-22T06:53:47.366Z,0.26
2017-08-22T06:54:47.817Z,0.26
2017-08-22T06:55:41.952Z,0.25
2017-08-22T06:56:31.029Z,0.25
2017-08-22T06:57:26.018Z,0.24
2017-08-22T06:58:14.229Z,0.24
2017-08-22T06:59:08.094Z,0.23
2017-08-22T06:59:57.032Z,0.23
2017-08-22T07:00:45.352Z,0.23
2017-08-22T07:01:34.362Z,0.24
2017-08-22T07:02:22.232Z,0.24
2017-08-22T07:03:10.507Z,0.25
2017-08-22T07:04:04.492Z,0.25
2017-08-22T07:04:58.534Z,0.25
2017-08-22T07:05:46.161Z,0.25
2017-08-22T07:06:40.264Z,0.25
2017-08-22T07:07:40.585Z,0.26
2017-08-22T07:08:34.381Z,0.26
2017-08-22T07:09:23.885Z,0.26
2017-08-22T07:10:12.724Z,0.26
2017-08-22T07:11:06.666Z,0.26
2017-08-22T07:12:00.739Z,0.26
2017-08-22T07:12:50.004Z,0.27
2017-08-22T07:13:38.860Z,0.27
2017-08-22T07:14:38.990Z,0.27
2017-08-22T07:15:33.017Z,0.28
2017-08-22T07:16:27.090Z,0.30
2017-08-22T07:17:22.093Z,0.28
2017-08-22T07:18:15.718Z,0.28
2017-08-22T07:19:15.835Z,0.32
2017-08-22T07:20:05.398Z,0.30
2017-08-22T07:20:54.318Z,0.30
2017-08-22T07:21:42.435Z,0.35
2017-08-22T07:22:37.473Z,0.30
2017-08-22T07:23:37.396Z,0.28
2017-08-22T07:24:32.392Z,0.27
2017-08-22T07:25:32.173Z,0.27
2017-08-22T07:26:27.488Z,0.27
2017-08-22T07:27:22.137Z,0.27
2017-08-22T07:28:16.713Z,0.26
2017-08-22T07:29:16.104Z,0.26
2017-08-22T07:30:05.624Z,0.26
2017-08-22T07:30:53.826Z,0.26
2017-08-22T07:31:53.240Z,0.26
2017-08-22T07:32:48.065Z,0.27
2017-08-22T07:33:42.542Z,0.27
2017-08-22T07:34:43.002Z,0.29
2017-08-22T07:35:38.089Z,0.30
2017-08-22T07:36:31.859Z,0.31
2017-08-22T07:37:27.106Z,0.31
2017-08-22T07:38:20.683Z,0.34
2017-08-22T07:39:21.665Z,0.34
2017-08-22T07:40:15.262Z,0.30
2017-08-22T07:41:10.285Z,0.29
2017-08-22T07:42:10.537Z,0.30
2017-08-22T07:43:05.455Z,0.27
2017-08-22T07:43:59.479Z,0.27
2017-08-22T07:44:59.542Z,0.27
2017-08-22T07:45:54.606Z,0.27
2017-08-22T07:46:43.730Z,0.27
2017-08-22T07:47:37.717Z,0.28
2017-08-22T07:48:31.638Z,0.31
2017-08-22T07:49:19.852Z,0.36
2017-08-22T07:50:13.919Z,0.31
2017-08-22T07:51:01.852Z,0.31
2017-08-22T07:51:56.829Z,0.32
2017-08-22T07:52:57.019Z,0.33
2017-08-22T07:53:46.077Z,0.34
2017-08-22T07:54:35.601Z,0.38
2017-08-22T07:55:36.174Z,0.35
2017-08-22T07:56:30.140Z,0.40
2017-08-22T07:57:18.247Z,0.37
2017-08-22T07:58:07.398Z,0.35
2017-08-22T07:59:07.442Z,0.35
2017-08-22T07:59:56.478Z,0.35
2017-08-22T08:00:45.449Z,0.34
2017-08-22T08:01:34.614Z,0.34
2017-08-22T08:02:23.624Z,0.33
2017-08-22T08:03:17.592Z,0.32
2017-08-22T08:04:17.596Z,0.31
2017-08-22T08:05:06.799Z,0.31
2017-08-22T08:06:06.691Z,0.32
2017-08-22T08:06:55.852Z,0.32
2017-08-22T08:07:44.801Z,0.32
2017-08-22T08:08:32.900Z,0.32
2017-08-22T08:09:33.016Z,0.40
2017-08-22T08:10:22.114Z,0.34
2017-08-22T08:11:16.078Z,0.36
2017-08-22T08:12:05.147Z,0.40
2017-08-22T08:13:00.220Z,0.41
2017-08-22T08:14:01.392Z,0.48
2017-08-22T08:14:49.446Z,0.44
2017-08-22T08:15:37.389Z,0.50
2017-08-22T08:16:26.444Z,0.40
2017-08-22T08:17:15.498Z,0.50
2017-08-22T08:18:09.562Z,0.41
2017-08-22T08:18:58.569Z,0.40
2017-08-22T08:19:52.591Z,0.42
2017-08-22T08:20:40.587Z,0.43
2017-08-22T08:21:40.747Z,0.40
2017-08-22T08:22:35.730Z,0.43
2017-08-22T08:23:35.806Z,0.41
2017-08-22T08:24:30.844Z,0.43
2017-08-22T08:25:24.878Z,0.52
2017-08-22T08:26:19.965Z,0.54
2017-08-22T08:27:07.975Z,0.42
2017-08-22T08:28:02.043Z,0.48
2017-08-22T08:28:56.074Z,0.51
2017-08-22T08:29:56.310Z,0.56
2017-08-22T08:30:50.390Z,0.55
2017-08-22T08:31:44.395Z,0.55
2017-08-22T08:32:33.432Z,0.56
2017-08-22T08:33:28.545Z,0.57
2017-08-22T08:34:17.574Z,0.56
2017-08-22T08:35:12.582Z,0.57
2017-08-22T08:36:00.582Z,0.58
2017-08-22T08:36:55.662Z,0.57
2017-08-22T08:37:50.751Z,0.57
2017-08-22T08:38:38.792Z,0.57
2017-08-22T08:39:32.943Z,0.56
2017-08-22T08:40:27.975Z,0.56
2017-08-22T08:41:16.974Z,0.57
2017-08-22T08:42:12.013Z,0.57
2017-08-22T08:43:12.103Z,0.58
2017-08-22T08:44:07.123Z,0.58
2017-08-22T08:45:01.185Z,0.58
2017-08-22T08:45:56.303Z,0.58
2017-08-22T08:46:51.378Z,0.58
2017-08-22T08:47:39.378Z,0.57
2017-08-22T08:48:28.434Z,0.56
2017-08-22T08:49:22.592Z,0.56
2017-08-22T08:50:17.511Z,0.57
2017-08-22T08:51:17.561Z,0.57
2017-08-22T08:52:11.701Z,0.58
2017-08-22T08:53:11.704Z,0.58
2017-08-22T08:54:00.796Z,0.59
2017-08-22T08:54:49.832Z,0.59
2017-08-22T08:55:38.821Z,0.58
2017-08-22T08:56:32.983Z,0.57
2017-08-22T08:57:28.012Z,0.57
2017-08-22T08:58:17.061Z,0.58
2017-08-22T08:59:12.191Z,0.58
2017-08-22T09:00:06.128Z,0.58
2017-08-22T09:01:00.273Z,0.56
2017-08-22T09:01:54.253Z,0.57
2017-08-22T09:02:48.339Z,0.57
2017-08-22T09:03:43.338Z,0.58
2017-08-22T09:04:37.506Z,0.58
2017-08-22T09:05:37.474Z,0.59
2017-08-22T09:06:31.532Z,0.60
2017-08-22T09:07:32.633Z,0.61
2017-08-22T09:08:21.632Z,0.60
2017-08-22T09:09:16.765Z,0.59
2017-08-22T09:10:05.747Z,0.58
2017-08-22T09:10:53.862Z,0.58
2017-08-22T09:11:48.911Z,0.58
2017-08-22T09:12:44.040Z,0.58
2017-08-22T09:13:38.176Z,0.59
2017-08-22T09:14:27.117Z,0.60
2017-08-22T09:15:22.175Z,0.61
2017-08-22T09:16:22.200Z,0.61
2017-08-22T09:17:17.233Z,0.61
2017-08-22T09:18:17.271Z,0.61
2017-08-22T09:19:18.627Z,0.61
2017-08-22T09:20:19.390Z,0.61
2017-08-22T09:21:08.430Z,0.61
2017-08-22T09:22:02.458Z,0.62
2017-08-22T09:23:02.589Z,0.63
2017-08-22T09:23:56.626Z,0.63
2017-08-22T09:24:50.809Z,0.64
2017-08-22T09:25:38.823Z,0.64
2017-08-22T09:26:27.905Z,0.64
2017-08-22T09:27:15.938Z,0.64
2017-08-22T09:28:03.929Z,0.64
2017-08-22T09:28:58.103Z,0.61
2017-08-22T09:29:59.066Z,0.62
2017-08-22T09:30:59.060Z,0.63
2017-08-22T09:31:54.109Z,0.64
2017-08-22T09:32:42.155Z,0.64
2017-08-22T09:33:36.286Z,0.65
2017-08-22T09:34:31.383Z,0.65
2017-08-22T09:35:19.511Z,0.65
2017-08-22T09:36:20.522Z,0.65
2017-08-22T09:37:09.601Z,0.65
2017-08-22T09:38:03.558Z,0.65
2017-08-22T09:38:58.703Z,0.65
2017-08-22T09:39:59.867Z,0.65
2017-08-22T09:40:53.680Z,0.66
2017-08-22T09:41:48.941Z,0.65
2017-08-22T09:42:36.868Z,0.65
2017-08-22T09:43:25.958Z,0.64
2017-08-22T09:44:15.124Z,0.65
2017-08-22T09:45:10.033Z,0.66
2017-08-22T09:45:58.122Z,0.66
2017-08-22T09:46:46.196Z,0.65
2017-08-22T09:47:40.247Z,0.65
2017-08-22T09:48:29.338Z,0.65
2017-08-22T09:49:18.302Z,0.65
2017-08-22T09:50:18.312Z,0.66
2017-08-22T09:51:06.429Z,0.67
2017-08-22T09:52:00.544Z,0.65
2017-08-22T09:52:49.652Z,0.65
2017-08-22T09:53:43.752Z,0.66
2017-08-22T09:54:37.811Z,0.67
2017-08-22T09:55:26.833Z,0.67
2017-08-22T09:56:20.966Z,0.67
2017-08-22T09:57:16.036Z,0.67
2017-08-22T09:58:04.021Z,0.67
2017-08-22T09:58:59.178Z,0.67
2017-08-22T09:59:48.251Z,0.67
2017-08-22T10:00:37.212Z,0.68
2017-08-22T10:01:25.259Z,0.67
2017-08-22T10:02:25.328Z,0.69
2017-08-22T10:03:19.368Z,0.67
2017-08-22T10:04:19.394Z,0.69
2017-08-22T10:05:13.553Z,0.67
2017-08-22T10:06:08.608Z,0.67
2017-08-22T10:06:57.705Z,0.67
2017-08-22T10:07:46.697Z,0.66
2017-08-22T10:08:35.804Z,0.66
2017-08-22T10:09:29.746Z,0.67
2017-08-22T10:10:29.880Z,0.67
2017-08-22T10:11:18.856Z,0.68
2017-08-22T10:12:06.979Z,0.68
2017-08-22T10:12:56.084Z,0.68
2017-08-22T10:13:45.069Z,0.69
2017-08-22T10:14:34.232Z,0.69
2017-08-22T10:15:28.191Z,0.68
2017-08-22T10:16:17.272Z,0.69
2017-08-22T10:17:11.257Z,0.68
2017-08-22T10:18:11.511Z,0.66
2017-08-22T10:19:05.430Z,0.68
2017-08-22T10:19:59.513Z,0.49
2017-08-22T10:20:59.612Z,0.45
2017-08-22T10:21:47.618Z,0.63
2017-08-22T10:22:47.815Z,0.36
2017-08-22T10:23:36.829Z,0.41
2017-08-22T10:24:25.947Z,0.32
2017-08-22T10:25:19.922Z,0.30
2017-08-22T10:26:14.996Z,0.28
2017-08-22T10:27:03.050Z,0.27
2017-08-22T10:27:57.173Z,0.27
2017-08-22T10:28:51.235Z,0.26
2017-08-22T10:29:51.272Z,0.27
2017-08-22T10:30:51.234Z,0.27
2017-08-22T10:31:45.345Z,0.27
2017-08-22T10:32:39.353Z,0.28
2017-08-22T10:33:33.541Z,0.28
2017-08-22T10:34:21.593Z,0.29
2017-08-22T10:35:15.604Z,0.30
2017-08-22T10:36:04.575Z,0.30
2017-08-22T10:36:53.745Z,0.30
2017-08-22T10:37:48.806Z,0.30
2017-08-22T10:38:48.749Z,0.30
2017-08-22T10:39:43.877Z,0.30
2017-08-22T10:40:37.928Z,0.31
2017-08-22T10:41:25.935Z,0.32
2017-08-22T10:42:19.944Z,0.34
2017-08-22T10:43:08.157Z,0.34
2017-08-22T10:44:09.183Z,0.35
2017-08-22T10:44:57.097Z,0.35
2017-08-22T10:45:46.245Z,0.36
2017-08-22T10:46:41.328Z,0.36
2017-08-22T10:47:41.417Z,0.38
2017-08-22T10:48:30.428Z,0.39
2017-08-22T10:49:19.498Z,0.39
2017-08-22T10:50:07.520Z,0.39
2017-08-22T10:51:07.662Z,0.41
2017-08-22T10:52:01.685Z,0.41
2017-08-22T10:53:01.726Z,0.50
2017-08-22T10:53:56.741Z,0.63
2017-08-22T10:54:51.864Z,0.72
2017-08-22T10:55:46.770Z,0.74
2017-08-22T10:56:40.957Z,0.74
2017-08-22T10:57:30.022Z,0.74
2017-08-22T10:58:25.038Z,0.74
2017-08-22T10:59:20.173Z,0.73
2017-08-22T11:00:14.246Z,0.74
2017-08-22T11:01:03.136Z,0.73
2017-08-22T11:01:52.284Z,0.65
2017-08-22T11:02:47.374Z,0.69
2017-08-22T11:03:36.450Z,0.35
2017-08-22T11:04:31.523Z,0.41
2017-08-22T11:05:25.543Z,0.32
2017-08-22T11:06:19.622Z,0.31
2017-08-22T11:07:13.726Z,0.29
2017-08-22T11:08:07.771Z,0.29
2017-08-22T11:09:01.866Z,0.29
2017-08-22T11:09:55.926Z,0.30
2017-08-22T11:10:49.933Z,0.31
2017-08-22T11:11:43.877Z,0.33
2017-08-22T11:12:38.022Z,0.40
2017-08-22T11:13:39.094Z,0.41
2017-08-22T11:14:33.219Z,0.44
2017-08-22T11:15:22.161Z,0.37
2017-08-22T11:16:16.315Z,0.36
2017-08-22T11:17:16.289Z,0.37
2017-08-22T11:18:05.314Z,0.38
2017-08-22T11:19:00.480Z,0.38
2017-08-22T11:20:00.500Z,0.39
2017-08-22T11:20:54.410Z,0.40
2017-08-22T11:21:48.632Z,0.40
2017-08-22T11:22:42.598Z,0.73
2017-08-22T11:23:42.752Z,0.75
2017-08-22T11:24:31.479Z,0.75
2017-08-22T11:25:25.843Z,0.76
2017-08-22T11:26:25.836Z,0.76
2017-08-22T11:27:19.918Z,0.75
2017-08-22T11:28:07.988Z,0.75
2017-08-22T11:28:56.072Z,0.58
2017-08-22T11:29:50.995Z,0.44
2017-08-22T11:30:39.129Z,0.76
2017-08-22T11:31:28.242Z,0.75
2017-08-22T11:32:16.225Z,0.74
2017-08-22T11:33:11.394Z,0.72
2017-08-22T11:34:00.487Z,0.69
2017-08-22T11:34:49.476Z,0.65
2017-08-22T11:35:44.683Z,0.37
2017-08-22T11:36:38.689Z,0.39
2017-08-22T11:37:38.726Z,0.56
2017-08-22T11:38:26.836Z,0.52
2017-08-22T11:39:14.841Z,0.45
2017-08-22T11:40:03.854Z,0.49
2017-08-22T11:40:59.087Z,0.35
2017-08-22T11:41:48.036Z,0.31
2017-08-22T11:42:41.989Z,0.30
2017-08-22T11:43:36.078Z,0.30
2017-08-22T11:44:31.198Z,0.30
2017-08-22T11:45:20.213Z,0.29
2017-08-22T11:46:14.269Z,0.28
2017-08-22T11:47:03.207Z,0.28
2017-08-22T11:47:52.342Z,0.29
2017-08-22T11:48:46.456Z,0.38
2017-08-22T11:49:46.475Z,0.40
2017-08-22T11:50:46.557Z,0.52
2017-08-22T11:51:40.555Z,0.51
2017-08-22T11:52:29.691Z,0.51
2017-08-22T11:53:17.776Z,0.46
2017-08-22T11:54:11.894Z,0.37
2017-08-22T11:55:05.796Z,0.36
2017-08-22T11:55:59.843Z,0.51
2017-08-22T11:56:53.917Z,0.43
2017-08-22T11:57:49.070Z,0.57
2017-08-22T11:58:44.046Z,0.33
2017-08-22T11:59:33.215Z,0.34
2017-08-22T12:00:21.222Z,0.36
2017-08-22T12:01:09.308Z,0.51
2017-08-22T12:02:03.207Z,0.47
2017-08-22T12:02:52.385Z,0.54
2017-08-22T12:03:46.447Z,0.40
2017-08-22T12:04:40.452Z,0.40
2017-08-22T12:05:40.590Z,0.43
2017-08-22T12:06:28.568Z,0.56
2017-08-22T12:07:22.710Z,0.43
2017-08-22T12:08:11.694Z,0.52
2017-08-22T12:09:00.854Z,0.39
2017-08-22T12:09:49.826Z,0.37
2017-08-22T12:10:44.862Z,0.36
2017-08-22T12:11:38.950Z,0.35
2017-08-22T12:12:28.006Z,0.38
2017-08-22T12:13:17.096Z,0.57
2017-08-22T12:14:12.113Z,0.42
2017-08-22T12:15:00.091Z,0.40
2017-08-22T12:15:55.173Z,0.38
2017-08-22T12:16:55.347Z,0.38
2017-08-22T12:17:50.210Z,0.35
2017-08-22T12:18:39.437Z,0.36
2017-08-22T12:19:33.386Z,0.34